createdAt,value
2022-11-25T00:01:34.595Z,98.51
2022-11-25T00:04:03.179Z,98.30
2022-11-25T00:06:33.425Z,98.78
2022-11-25T00:09:03.293Z,98.34
2022-11-25T00:11:31.742Z,98.82
2022-11-25T00:13:59.797Z,98.45
2022-11-25T00:16:29.392Z,98.75
2022-11-25T00:18:58.814Z,98.08
2022-11-25T00:21:28.844Z,97.79
2022-11-25T00:23:58.323Z,97.69
2022-11-25T00:26:27.464Z,97.37
2022-11-25T00:28:57.847Z,96.66
2022-11-25T00:31:28.921Z,97.00
2022-11-25T00:33:59.749Z,97.13
2022-11-25T00:36:31.008Z,96.80
2022-11-25T00:39:00.707Z,96.85
2022-11-25T00:41:47.113Z,96.88
2022-11-25T00:44:35.193Z,96.61
2022-11-25T00:47:05.271Z,97.04
2022-11-25T00:49:33.820Z,96.65
2022-11-25T00:52:02.308Z,96.06
2022-11-25T00:54:30.343Z,96.08
2022-11-25T00:56:58.959Z,96.42
2022-11-25T00:59:28.914Z,96.27
2022-11-25T01:01:57.125Z,95.57
2022-11-25T01:04:27.227Z,96.35
2022-11-25T01:06:57.020Z,96.64
2022-11-25T01:09:25.208Z,97.09
2022-11-25T01:11:53.636Z,96.39
2022-11-25T01:14:23.155Z,96.61
2022-11-25T01:16:51.589Z,97.09
2022-11-25T01:19:20.707Z,97.31
2022-11-25T01:21:50.217Z,97.04
2022-11-25T01:24:19.452Z,97.37
2022-11-25T01:26:47.480Z,97.44
2022-11-25T01:29:17.732Z,97.54
2022-11-25T01:31:49.472Z,97.51
2022-11-25T01:34:19.907Z,97.59
2022-11-25T01:36:49.342Z,97.76
2022-11-25T01:39:19.421Z,97.52
2022-11-25T01:41:48.510Z,97.78
2022-11-25T01:44:18.178Z,97.28
2022-11-25T01:47:06.563Z,97.88
2022-11-25T01:49:40.893Z,97.96
2022-11-25T01:52:16.470Z,98.07
2022-11-25T01:54:50.869Z,98.15
2022-11-25T01:57:26.182Z,98.15
2022-11-25T01:59:58.770Z,97.83
2022-11-25T02:02:27.220Z,97.24
2022-11-25T02:04:55.127Z,97.57
2022-11-25T02:07:32.289Z,98.23
2022-11-25T02:10:03.007Z,97.86
2022-11-25T02:12:32.203Z,97.22
2022-11-25T02:15:00.574Z,97.55
2022-11-25T02:17:28.685Z,97.83
2022-11-25T02:20:03.044Z,97.60
2022-11-25T02:22:43.186Z,97.63
2022-11-25T02:25:16.684Z,97.53
2022-11-25T02:27:47.590Z,97.02
2022-11-25T02:30:15.973Z,97.19
2022-11-25T02:32:47.502Z,97.33
2022-11-25T02:35:37.970Z,97.09
2022-11-25T02:38:10.212Z,97.01
2022-11-25T02:40:45.541Z,97.36
2022-11-25T02:43:13.745Z,97.04
2022-11-25T02:46:03.576Z,96.02
2022-11-25T02:49:06.916Z,96.13
2022-11-25T02:51:24.555Z,96.27
2022-11-25T02:53:53.120Z,95.63
2022-11-25T02:56:26.329Z,95.94
2022-11-25T02:58:54.489Z,96.21
2022-11-25T03:01:23.167Z,96.31
2022-11-25T03:03:51.164Z,95.71
2022-11-25T03:06:19.439Z,95.96
2022-11-25T03:08:47.389Z,95.93
2022-11-25T03:11:15.812Z,95.83
2022-11-25T03:13:45.303Z,95.31
2022-11-25T03:16:13.306Z,95.50
2022-11-25T03:18:41.255Z,95.43
2022-11-25T03:21:09.289Z,95.57
2022-11-25T03:23:37.144Z,95.50
2022-11-25T03:26:07.231Z,95.56
2022-11-25T03:28:35.218Z,95.57
2022-11-25T03:31:04.517Z,95.54
2022-11-25T03:33:32.408Z,95.47
2022-11-25T03:36:00.278Z,95.79
2022-11-25T03:38:28.332Z,95.67
2022-11-25T03:40:56.200Z,95.76
2022-11-25T03:43:24.098Z,96.29
2022-11-25T03:45:52.143Z,95.84
2022-11-25T03:48:21.653Z,95.59
2022-11-25T03:50:49.827Z,96.53
2022-11-25T03:53:17.780Z,96.44
2022-11-25T03:55:48.446Z,96.65
2022-11-25T03:58:16.542Z,96.24
2022-11-25T04:00:44.411Z,96.65
2022-11-25T04:03:12.283Z,97.48
2022-11-25T04:05:42.602Z,96.20
2022-11-25T04:08:10.713Z,96.29
2022-11-25T04:10:38.698Z,96.18
2022-11-25T04:13:05.680Z,95.94
2022-11-25T04:15:33.585Z,95.61
2022-11-25T04:18:01.562Z,96.24
2022-11-25T04:20:29.590Z,95.29
2022-11-25T04:22:58.878Z,95.18
2022-11-25T04:25:26.927Z,95.21
2022-11-25T04:27:54.977Z,95.13
2022-11-25T04:30:22.859Z,94.52
2022-11-25T04:32:50.871Z,94.79
2022-11-25T04:35:18.999Z,94.49
2022-11-25T04:37:47.093Z,94.06
2022-11-25T04:40:16.882Z,94.62
2022-11-25T04:42:44.957Z,94.66
2022-11-25T04:45:22.907Z,95.30
2022-11-25T04:47:51.667Z,95.59
2022-11-25T04:50:22.830Z,95.88
2022-11-25T04:52:51.170Z,95.31
2022-11-25T04:55:21.077Z,94.77
2022-11-25T04:57:49.049Z,94.53
2022-11-25T05:00:16.760Z,94.51
2022-11-25T05:02:44.932Z,94.69
2022-11-25T05:05:14.035Z,95.15
2022-11-25T05:07:42.539Z,95.53
2022-11-25T05:10:10.940Z,95.42
2022-11-25T05:12:40.462Z,95.42
2022-11-25T05:15:10.117Z,95.27
2022-11-25T05:17:38.984Z,95.16
2022-11-25T05:20:08.676Z,94.46
2022-11-25T05:22:37.137Z,94.71
2022-11-25T05:25:06.868Z,94.40
2022-11-25T05:27:35.017Z,94.08
2022-11-25T05:30:04.949Z,94.40
2022-11-25T05:32:33.056Z,94.33
2022-11-25T05:35:00.999Z,94.65
2022-11-25T05:37:29.092Z,94.70
2022-11-25T05:39:57.227Z,95.02
2022-11-25T05:42:25.221Z,95.70
2022-11-25T05:44:53.484Z,95.99
2022-11-25T05:47:22.807Z,95.85
2022-11-25T05:49:50.814Z,96.15
2022-11-25T05:52:19.014Z,96.48
2022-11-25T05:54:46.914Z,96.26
2022-11-25T05:57:14.872Z,94.91
2022-11-25T05:59:43.396Z,95.27
2022-11-25T06:02:11.559Z,94.73
2022-11-25T06:04:41.187Z,93.62
2022-11-25T06:07:09.460Z,92.80
2022-11-25T06:09:37.453Z,92.51
2022-11-25T06:12:05.718Z,92.60
2022-11-25T06:14:34.144Z,91.98
2022-11-25T06:17:02.284Z,92.06
2022-11-25T06:19:30.269Z,92.07
2022-11-25T06:21:59.594Z,91.62
2022-11-25T06:24:27.518Z,91.95
2022-11-25T06:26:55.386Z,92.26
2022-11-25T06:29:23.358Z,92.32
2022-11-25T06:31:51.430Z,92.17
2022-11-25T06:34:19.336Z,92.50
2022-11-25T06:36:47.321Z,92.18
2022-11-25T06:39:16.600Z,92.55
2022-11-25T06:41:44.518Z,91.75
2022-11-25T06:44:12.515Z,92.13
2022-11-25T06:46:40.541Z,92.31
2022-11-25T06:49:08.433Z,92.27
2022-11-25T06:51:36.495Z,92.19
2022-11-25T06:54:04.442Z,92.48
2022-11-25T06:56:33.707Z,92.04
2022-11-25T06:59:01.552Z,92.67
2022-11-25T07:01:30.684Z,92.36
2022-11-25T07:04:01.525Z,92.41
2022-11-25T07:06:29.489Z,92.55
2022-11-25T07:08:58.214Z,92.67
2022-11-25T07:11:29.194Z,92.37
2022-11-25T07:14:00.948Z,91.77
2022-11-25T07:16:29.734Z,91.43
2022-11-25T07:18:57.853Z,92.26
2022-11-25T07:21:26.587Z,91.75
2022-11-25T07:23:55.023Z,91.75
2022-11-25T07:26:24.821Z,91.43
2022-11-25T07:28:55.980Z,91.34
2022-11-25T07:31:31.505Z,91.27
2022-11-25T07:34:02.567Z,91.01
2022-11-25T07:36:32.124Z,89.85
2022-11-25T07:39:01.598Z,90.36
2022-11-25T07:41:31.015Z,90.62
2022-11-25T07:44:00.888Z,90.39
2022-11-25T07:46:32.259Z,89.85
2022-11-25T07:49:03.684Z,89.87
2022-11-25T07:51:34.150Z,88.96
2022-11-25T07:54:03.914Z,88.83
2022-11-25T07:56:32.504Z,89.33
2022-11-25T07:59:00.573Z,88.66
2022-11-25T08:01:28.907Z,89.16
2022-11-25T08:03:58.273Z,88.96
2022-11-25T08:06:28.285Z,89.71
2022-11-25T08:08:58.452Z,89.67
2022-11-25T08:11:27.718Z,90.18
2022-11-25T08:13:55.951Z,89.72
2022-11-25T08:16:26.406Z,88.78
2022-11-25T08:18:55.497Z,88.52
2022-11-25T08:21:25.467Z,87.60
2022-11-25T08:23:53.525Z,87.37
2022-11-25T08:26:24.399Z,87.82
2022-11-25T08:28:52.465Z,87.07
2022-11-25T08:31:23.011Z,88.14
2022-11-25T08:33:52.339Z,87.48
2022-11-25T08:36:21.500Z,87.18
2022-11-25T08:38:52.836Z,86.77
2022-11-25T08:41:23.676Z,86.31
2022-11-25T08:43:51.913Z,86.50
2022-11-25T08:46:22.603Z,87.03
2022-11-25T08:48:50.929Z,86.84
2022-11-25T08:51:21.790Z,86.50
2022-11-25T08:53:52.314Z,88.04
2022-11-25T08:56:25.983Z,87.67
2022-11-25T08:58:55.126Z,87.78
2022-11-25T09:01:25.104Z,87.39
2022-11-25T09:03:55.699Z,87.09
2022-11-25T09:06:24.382Z,86.56
2022-11-25T09:08:56.626Z,85.81
2022-11-25T09:11:24.838Z,85.90
2022-11-25T09:13:52.803Z,85.46
2022-11-25T09:16:23.337Z,86.02
2022-11-25T09:18:55.810Z,85.85
2022-11-25T09:21:25.460Z,85.41
2022-11-25T09:23:55.796Z,85.10
2022-11-25T09:26:25.731Z,84.44
2022-11-25T09:28:53.993Z,86.99
2022-11-25T09:31:22.697Z,85.59
2022-11-25T09:33:51.129Z,86.61
2022-11-25T09:36:20.367Z,85.82
2022-11-25T09:38:48.571Z,85.90
2022-11-25T09:41:52.240Z,85.40
2022-11-25T09:44:53.134Z,85.95
2022-11-25T09:47:31.872Z,86.10
2022-11-25T09:50:12.067Z,86.51
2022-11-25T09:52:51.473Z,86.19
2022-11-25T09:55:22.007Z,86.14
2022-11-25T09:58:02.902Z,87.58
2022-11-25T10:00:39.126Z,87.56
2022-11-25T10:03:15.508Z,88.66
2022-11-25T10:05:48.361Z,89.23
2022-11-25T10:08:20.845Z,88.84
2022-11-25T10:10:51.114Z,88.99
2022-11-25T10:13:26.220Z,88.74
2022-11-25T10:16:00.300Z,88.91
2022-11-25T10:18:34.689Z,88.41
2022-11-25T10:21:02.755Z,88.91
2022-11-25T10:23:35.812Z,89.89
2022-11-25T10:26:13.920Z,89.40
2022-11-25T10:28:52.272Z,89.10
2022-11-25T10:31:22.138Z,90.81
2022-11-25T10:33:53.192Z,90.66
2022-11-25T10:36:24.255Z,90.35
2022-11-25T10:38:58.485Z,90.73
2022-11-25T10:41:30.961Z,90.17
2022-11-25T10:44:00.505Z,89.90
2022-11-25T10:46:56.980Z,88.82
2022-11-25T10:49:30.803Z,88.97
2022-11-25T10:51:59.003Z,89.27
2022-11-25T10:54:28.392Z,89.42
2022-11-25T10:56:58.545Z,89.73
2022-11-25T10:59:32.019Z,89.07
2022-11-25T11:02:20.396Z,89.61
2022-11-25T11:04:55.615Z,89.81
2022-11-25T11:07:25.103Z,89.78
2022-11-25T11:09:53.887Z,89.05
2022-11-25T11:12:24.931Z,89.48
2022-11-25T11:14:56.108Z,88.82
2022-11-25T11:17:36.348Z,88.77
2022-11-25T11:20:17.773Z,88.43
2022-11-25T11:22:55.449Z,88.90
2022-11-25T11:25:35.033Z,88.12
2022-11-25T11:28:05.807Z,88.23
2022-11-25T11:30:36.423Z,88.68
2022-11-25T11:33:08.535Z,88.84
2022-11-25T11:35:58.440Z,88.34
2022-11-25T11:38:34.105Z,88.82
2022-11-25T11:41:15.035Z,88.26
2022-11-25T11:43:58.540Z,88.96
2022-11-25T11:46:42.751Z,88.67
2022-11-25T11:49:33.769Z,88.79
2022-11-25T11:52:10.666Z,89.33
2022-11-25T11:54:45.767Z,89.69
2022-11-25T11:57:22.993Z,89.21
2022-11-25T11:59:53.954Z,89.77
2022-11-25T12:02:41.685Z,88.78
2022-11-25T12:05:17.016Z,89.82
2022-11-25T12:07:53.216Z,90.33
2022-11-25T12:10:27.165Z,89.80
2022-11-25T12:13:05.911Z,89.49
2022-11-25T12:15:43.464Z,89.75
2022-11-25T12:18:21.090Z,89.36
2022-11-25T12:20:56.758Z,89.89
2022-11-25T12:23:36.138Z,90.48
2022-11-25T12:26:09.420Z,90.61
2022-11-25T12:28:41.554Z,90.08
2022-11-25T12:31:18.380Z,89.96
2022-11-25T12:33:57.774Z,90.38
2022-11-25T12:36:32.606Z,90.28
2022-11-25T12:39:04.092Z,90.78
2022-11-25T12:41:41.690Z,90.18
2022-11-25T12:44:15.981Z,90.60
2022-11-25T12:46:47.713Z,90.60
2022-11-25T12:49:21.070Z,90.81
2022-11-25T12:52:12.397Z,90.36
2022-11-25T12:55:04.165Z,89.94
2022-11-25T12:58:10.809Z,90.10
2022-11-25T13:01:01.963Z,90.12
2022-11-25T13:04:14.013Z,89.68
2022-11-25T13:07:08.784Z,90.80
2022-11-25T13:10:25.586Z,90.17
2022-11-25T13:13:17.755Z,91.36
2022-11-25T13:15:48.415Z,91.47
2022-11-25T13:18:20.869Z,91.32
2022-11-25T13:20:51.042Z,90.37
2022-11-25T13:23:30.401Z,90.90
2022-11-25T13:26:37.158Z,90.35
2022-11-25T13:30:02.298Z,90.02
2022-11-25T13:32:42.480Z,90.93
2022-11-25T13:35:49.339Z,91.36
2022-11-25T13:38:59.186Z,91.35
2022-11-25T13:41:41.514Z,90.99
2022-11-25T13:44:20.061Z,91.15
2022-11-25T13:46:51.513Z,90.56
2022-11-25T13:49:34.831Z,90.25
2022-11-25T13:52:05.558Z,91.08
2022-11-25T13:54:40.617Z,90.83
2022-11-25T13:57:27.597Z,90.74
2022-11-25T13:59:59.188Z,90.65
2022-11-25T14:02:38.247Z,91.21
2022-11-25T14:05:26.097Z,91.10
2022-11-25T14:08:08.324Z,91.03
2022-11-25T14:10:46.271Z,91.12
2022-11-25T14:13:35.795Z,91.17
2022-11-25T14:16:21.916Z,91.25
2022-11-25T14:22:08.713Z,90.63
2022-11-25T14:24:39.828Z,91.80
2022-11-25T14:27:16.974Z,91.10
2022-11-25T14:29:48.042Z,91.30
2022-11-25T14:32:21.362Z,90.75
2022-11-25T14:34:54.114Z,90.93
2022-11-25T14:37:28.699Z,90.76
2022-11-25T14:39:59.850Z,91.20
2022-11-25T14:42:34.446Z,90.66
2022-11-25T14:45:03.261Z,90.64
2022-11-25T14:47:37.592Z,90.88
2022-11-25T14:53:02.249Z,91.95
2022-11-25T14:55:32.412Z,91.62
2022-11-25T14:58:01.796Z,92.00
2022-11-25T15:00:30.007Z,91.81
2022-11-25T15:03:00.933Z,92.50
2022-11-25T15:05:34.070Z,92.42
2022-11-25T15:08:05.534Z,92.38
2022-11-25T15:10:42.365Z,92.56
2022-11-25T15:13:26.088Z,92.53
2022-11-25T15:15:55.993Z,92.97
2022-11-25T15:18:26.311Z,92.89
2022-11-25T15:20:58.966Z,93.16
2022-11-25T15:23:32.021Z,92.56
2022-11-25T15:26:01.302Z,92.36
2022-11-25T15:28:36.783Z,92.03
2022-11-25T15:31:10.614Z,91.59
2022-11-25T15:33:39.658Z,92.13
2022-11-25T15:36:08.082Z,91.55
2022-11-25T15:38:39.256Z,92.45
2022-11-25T15:41:14.998Z,92.13
2022-11-25T15:43:47.499Z,93.00
2022-11-25T15:46:16.302Z,92.34
2022-11-25T15:48:46.930Z,92.75
2022-11-25T15:51:25.870Z,92.66
2022-11-25T15:53:56.628Z,92.26
2022-11-25T15:56:27.407Z,92.32
2022-11-25T15:59:01.525Z,92.19
2022-11-25T16:01:30.943Z,92.20
2022-11-25T16:04:25.581Z,91.84
2022-11-25T16:06:55.262Z,91.94
2022-11-25T16:09:25.540Z,92.10
2022-11-25T16:11:53.644Z,92.49
2022-11-25T16:14:27.991Z,92.60
2022-11-25T16:17:02.614Z,91.96
2022-11-25T16:19:37.983Z,91.94
2022-11-25T16:22:06.861Z,92.05
2022-11-25T16:24:50.765Z,92.03
2022-11-25T16:27:24.664Z,92.01
2022-11-25T16:29:56.947Z,92.13
2022-11-25T16:32:27.110Z,91.43
2022-11-25T16:34:58.431Z,91.31
2022-11-25T16:37:26.381Z,92.28
2022-11-25T16:39:54.327Z,92.21
2022-11-25T16:42:23.577Z,92.36
2022-11-25T16:44:53.432Z,92.28
2022-11-25T16:47:24.325Z,92.16
2022-11-25T16:49:53.103Z,92.24
2022-11-25T16:52:20.993Z,92.29
2022-11-25T16:54:49.116Z,91.77
2022-11-25T16:57:21.882Z,92.14
2022-11-25T16:59:55.911Z,92.45
2022-11-25T17:02:28.410Z,92.59
2022-11-25T17:04:58.192Z,92.65
2022-11-25T17:07:34.423Z,92.31
2022-11-25T17:10:15.623Z,92.62
2022-11-25T17:12:53.991Z,92.51
2022-11-25T17:15:30.237Z,92.44
2022-11-25T17:18:00.539Z,92.12
2022-11-25T17:20:28.740Z,92.19
2022-11-25T17:22:57.362Z,92.37
2022-11-25T17:25:33.673Z,92.14
2022-11-25T17:28:05.225Z,92.21
2022-11-25T17:30:33.602Z,92.27
2022-11-25T17:33:05.863Z,92.57
2022-11-25T17:35:34.055Z,92.99
2022-11-25T17:38:02.719Z,92.93
2022-11-25T17:40:31.008Z,92.17
2022-11-25T17:42:59.011Z,92.19
2022-11-25T17:45:27.146Z,92.29
2022-11-25T17:47:55.251Z,92.53
2022-11-25T17:50:26.951Z,92.97
2022-11-25T17:52:55.709Z,92.80
2022-11-25T17:55:24.774Z,93.14
2022-11-25T17:57:53.398Z,92.87
2022-11-25T18:00:23.671Z,94.09
2022-11-25T18:02:52.442Z,93.92
2022-11-25T18:05:22.794Z,94.75
2022-11-25T18:07:52.667Z,95.00
2022-11-25T18:10:23.876Z,95.28
2022-11-25T18:12:54.367Z,95.23
2022-11-25T18:15:25.160Z,95.01
2022-11-25T18:18:03.461Z,95.00
2022-11-25T18:20:33.166Z,95.06
2022-11-25T18:23:02.771Z,95.93
2022-11-25T18:25:33.066Z,95.63
2022-11-25T18:28:02.246Z,95.12
2022-11-25T18:30:33.579Z,94.90
2022-11-25T18:33:01.962Z,94.90
2022-11-25T18:35:36.164Z,94.87
2022-11-25T18:38:06.937Z,95.09
2022-11-25T18:40:37.187Z,95.19
2022-11-25T18:43:06.474Z,95.90
2022-11-25T18:45:38.109Z,95.53
2022-11-25T18:48:14.762Z,95.40
2022-11-25T18:51:11.422Z,95.29
2022-11-25T18:53:43.548Z,95.45
2022-11-25T18:56:33.410Z,96.04
2022-11-25T18:59:15.216Z,96.24
2022-11-25T19:01:59.997Z,96.26
2022-11-25T19:04:28.692Z,95.37
2022-11-25T19:06:56.750Z,95.12
2022-11-25T19:09:26.207Z,95.10
2022-11-25T19:11:55.550Z,95.36
2022-11-25T19:14:30.406Z,95.37
2022-11-25T19:17:02.460Z,95.85
2022-11-25T19:19:31.052Z,96.17
2022-11-25T19:22:01.501Z,96.29
2022-11-25T19:24:30.959Z,96.35
2022-11-25T19:26:59.218Z,96.21
2022-11-25T19:29:38.805Z,94.79
2022-11-25T19:32:18.392Z,95.33
2022-11-25T19:34:49.563Z,95.15
2022-11-25T19:37:20.581Z,95.47
2022-11-25T19:39:50.978Z,94.51
2022-11-25T19:42:19.304Z,94.29
2022-11-25T19:44:48.041Z,95.07
2022-11-25T19:47:21.037Z,95.30
2022-11-25T19:49:50.998Z,95.72
2022-11-25T19:52:22.227Z,95.32
2022-11-25T19:54:52.398Z,94.98
2022-11-25T19:57:23.232Z,94.71
2022-11-25T19:59:54.745Z,94.76
2022-11-25T20:02:25.376Z,95.24
2022-11-25T20:04:56.405Z,95.05
2022-11-25T20:07:25.045Z,95.05
2022-11-25T20:09:56.533Z,95.41
2022-11-25T20:12:29.337Z,95.33
2022-11-25T20:14:58.001Z,94.83
2022-11-25T20:17:29.078Z,95.05
2022-11-25T20:20:00.142Z,94.73
2022-11-25T20:22:32.760Z,95.11
2022-11-25T20:25:05.458Z,94.64
2022-11-25T20:27:34.345Z,94.77
2022-11-25T20:30:02.182Z,95.49
2022-11-25T20:32:34.073Z,95.46
2022-11-25T20:35:02.277Z,95.31
2022-11-25T20:37:40.526Z,95.31
2022-11-25T20:40:18.770Z,95.57
2022-11-25T20:42:47.121Z,95.69
2022-11-25T20:45:16.494Z,95.05
2022-11-25T20:47:44.901Z,96.08
2022-11-25T20:50:14.887Z,95.71
2022-11-25T20:52:43.756Z,95.30
2022-11-25T20:55:19.276Z,94.44
2022-11-25T20:57:47.932Z,95.19
2022-11-25T21:00:19.188Z,95.56
2022-11-25T21:02:47.630Z,95.92
2022-11-25T21:05:19.574Z,95.99
2022-11-25T21:07:48.777Z,96.27
2022-11-25T21:10:27.505Z,95.38
2022-11-25T21:12:56.880Z,95.38
2022-11-25T21:15:27.700Z,96.13
2022-11-25T21:17:57.607Z,96.08
2022-11-25T21:20:25.802Z,95.69
2022-11-25T21:22:57.985Z,95.29
2022-11-25T21:25:27.499Z,94.98
2022-11-25T21:27:55.766Z,95.22
2022-11-25T21:30:25.894Z,96.24
2022-11-25T21:32:58.225Z,95.02
2022-11-25T21:35:31.748Z,95.88
2022-11-25T21:38:00.158Z,96.04
2022-11-25T21:40:38.324Z,95.92
2022-11-25T21:43:18.417Z,95.91
2022-11-25T21:45:50.484Z,95.78
2022-11-25T21:48:21.488Z,95.77
2022-11-25T21:50:49.952Z,95.87
2022-11-25T21:53:18.240Z,95.71
2022-11-25T21:55:48.463Z,96.81
2022-11-25T21:58:18.844Z,96.58
2022-11-25T22:00:51.004Z,96.43
2022-11-25T22:03:21.409Z,95.84
2022-11-25T22:05:50.202Z,96.55
2022-11-25T22:08:18.698Z,96.20
2022-11-25T22:10:56.391Z,96.21
2022-11-25T22:13:30.613Z,95.93
2022-11-25T22:16:00.357Z,95.94
2022-11-25T22:18:34.792Z,96.01
2022-11-25T22:21:03.917Z,96.01
2022-11-25T22:23:33.883Z,96.16
2022-11-25T22:26:05.723Z,97.71
2022-11-25T22:28:33.776Z,97.68
2022-11-25T22:31:06.235Z,97.58
2022-11-25T22:33:36.518Z,97.88
2022-11-25T22:36:05.220Z,97.92
2022-11-25T22:38:33.423Z,98.64
2022-11-25T22:41:07.356Z,98.61
2022-11-25T22:43:40.241Z,98.91
2022-11-25T22:46:08.247Z,99.07
2022-11-25T22:48:38.377Z,98.90
2022-11-25T22:51:10.141Z,99.24
2022-11-25T22:53:39.168Z,100.00
2022-11-25T22:56:17.432Z,100.00
2022-11-25T22:58:45.857Z,100.00
2022-11-25T23:01:15.468Z,99.78
2022-11-25T23:03:45.747Z,100.00
2022-11-25T23:06:14.656Z,99.95
2022-11-25T23:08:42.585Z,99.31
2022-11-25T23:11:19.178Z,99.51
2022-11-25T23:13:48.706Z,99.68
2022-11-25T23:16:17.595Z,100.00
2022-11-25T23:18:47.662Z,100.00
2022-11-25T23:21:18.897Z,100.00
2022-11-25T23:23:47.088Z,100.00
2022-11-25T23:26:16.831Z,100.00
2022-11-25T23:28:44.771Z,99.63
2022-11-25T23:31:14.674Z,99.73
2022-11-25T23:33:46.292Z,99.59
2022-11-25T23:36:16.685Z,99.77
2022-11-25T23:38:50.902Z,100.00
2022-11-25T23:41:22.169Z,100.00
2022-11-25T23:43:50.753Z,99.83
2022-11-25T23:46:22.311Z,100.00
2022-11-25T23:48:55.994Z,100.00
2022-11-25T23:51:25.058Z,100.00
2022-11-25T23:53:53.586Z,99.80
2022-11-25T23:56:23.297Z,100.00
2022-11-25T23:58:51.612Z,99.94
